Terminal Aerodrome Forecast
Issued by NWS

Home | Current Version | Previous Version | Text Only | Print | Product List | Glossary On
Versions: 1 2 3 4 5 6 7 8 9 10 11 12 13 14 15 16 17 18 19 20 21 22 23
000
FTUS46 KSEW 171900 AAB
TAFHQM
TAF AMD
KHQM 171957Z 1720/1818 18013KT P6SM -SHRA SCT020 OVC050
      TEMPO 1720/1724 21017G27KT 4SM SHRA OVC020
     FM180000 25015KT P6SM -SHRA BKN035 BKN050
      TEMPO 1800/1802 25015G25KT
     FM180600 28009KT P6SM FEW018 SCT035 SCT050=

USA.gov is the U.S. government's official web portal to all federal, state and local government web resources and services.